Time;durP1;ratioP1;P1;durP2;ratioP2;P2;SDS_P1;SDS_P2;PMS_P1;PMS_P2;Temp;Humidity;BMP_temperature;BMP_pressure;BME280_temperature;BME280_humidity;BME280_pressure;Samples;Min_cycle;Max_cycle;Signal;HPM_P1;HPM_P2
2020/12/17 00:00:25;;;;;;;28.13;16.13;;;13.50;63.50;;;;;;5053558;28;20037;-64
2020/12/17 00:02:51;;;;;;;27.45;16.35;;;13.50;63.50;;;;;;5050459;28;20120;-64
2020/12/17 00:05:17;;;;;;;30.35;17.33;;;13.50;63.50;;;;;;5052791;28;20128;-66
2020/12/17 00:07:43;;;;;;;27.98;16.70;;;13.50;63.50;;;;;;5035404;28;20074;-64
2020/12/17 00:10:10;;;;;;;28.80;15.93;;;13.50;63.60;;;;;;5049308;28;20047;-64
2020/12/17 00:12:37;;;;;;;29.13;17.35;;;13.60;63.40;;;;;;5048662;28;20032;-64
2020/12/17 00:15:07;;;;;;;27.77;17.67;;;13.60;63.40;;;;;;5031499;28;20043;-64
2020/12/17 00:17:42;;;;;;;29.88;16.35;;;13.60;63.40;;;;;;5037095;28;20033;-64
2020/12/17 00:20:09;;;;;;;28.75;16.75;;;13.60;63.40;;;;;;5050779;28;20097;-64
2020/12/17 00:22:36;;;;;;;26.60;16.30;;;13.60;63.30;;;;;;5049450;28;20044;-64
2020/12/17 00:25:03;;;;;;;29.90;17.75;;;13.60;63.30;;;;;;5049754;28;20047;-64
2020/12/17 00:27:29;;;;;;;29.08;18.05;;;13.60;63.30;;;;;;5051097;28;20429;-64
2020/12/17 00:29:54;;;;;;;29.90;16.77;;;13.60;63.30;;;;;;5047949;28;20501;-63
2020/12/17 00:32:20;;;;;;;29.35;17.67;;;13.70;63.40;;;;;;5050693;28;20048;-64
2020/12/17 00:34:46;;;;;;;27.63;17.13;;;13.60;63.30;;;;;;5050700;28;20050;-64
2020/12/17 00:37:12;;;;;;;32.47;17.67;;;13.60;63.30;;;;;;5048698;28;20041;-64
2020/12/17 00:39:38;;;;;;;27.27;16.90;;;13.60;63.20;;;;;;5052208;28;20032;-64
2020/12/17 00:42:04;;;;;;;27.30;16.67;;;13.60;63.20;;;;;;5051590;28;20040;-64
2020/12/17 00:44:32;;;;;;;30.05;16.80;;;13.60;63.20;;;;;;5051600;28;20505;-63
2020/12/17 00:46:58;;;;;;;30.73;18.02;;;13.60;63.20;;;;;;5049279;28;20367;-63
2020/12/17 00:49:23;;;;;;;28.35;17.55;;;13.60;63.20;;;;;;5049052;28;20525;-63
2020/12/17 00:51:49;;;;;;;27.98;16.83;;;13.60;63.30;;;;;;5048303;28;20512;-64
2020/12/17 00:54:15;;;;;;;29.85;17.08;;;13.60;63.30;;;;;;5053538;28;20083;-64
2020/12/17 00:56:47;;;;;;;32.67;17.55;;;13.60;63.30;;;;;;5051922;28;20131;-64
2020/12/17 00:59:13;;;;;;;29.60;16.90;;;13.60;63.30;;;;;;5047970;28;20049;-64
2020/12/17 01:01:39;;;;;;;26.63;16.27;;;13.60;63.30;;;;;;5044457;28;20041;-64
2020/12/17 01:04:04;;;;;;;28.40;17.83;;;13.60;63.30;;;;;;5050599;22;20037;-64
2020/12/17 01:06:30;;;;;;;29.23;17.40;;;13.60;63.30;;;;;;5025171;28;20071;-64
2020/12/17 01:08:56;;;;;;;28.70;17.55;;;13.70;63.30;;;;;;5020970;28;20044;-64
2020/12/17 01:11:28;;;;;;;32.75;17.58;;;13.60;63.20;;;;;;5021868;28;20041;-65
2020/12/17 01:13:54;;;;;;;30.98;18.30;;;13.60;63.20;;;;;;5021451;28;20397;-64
2020/12/17 01:16:20;;;;;;;27.27;17.23;;;13.60;63.20;;;;;;5022343;28;20051;-64
2020/12/17 01:18:46;;;;;;;31.83;18.70;;;13.70;63.20;;;;;;5019173;28;20033;-64
2020/12/17 01:21:14;;;;;;;32.63;17.77;;;13.60;63.20;;;;;;5021889;28;20108;-64
2020/12/17 01:23:40;;;;;;;33.45;18.63;;;13.70;63.30;;;;;;5026146;28;20029;-64
2020/12/17 01:26:08;;;;;;;34.88;18.35;;;13.60;63.20;;;;;;5023541;28;20071;-64
2020/12/17 01:28:38;;;;;;;32.20;18.23;;;13.70;63.30;;;;;;5024728;28;20105;-65
2020/12/17 01:31:11;;;;;;;35.22;18.15;;;13.70;63.20;;;;;;5022086;28;20036;-65
2020/12/17 01:33:38;;;;;;;31.05;17.33;;;13.60;63.20;;;;;;5008880;28;20278;-65
2020/12/17 01:36:08;;;;;;;34.00;19.02;;;13.60;63.10;;;;;;5026535;28;20584;-65
2020/12/17 01:38:35;;;;;;;32.08;18.92;;;13.60;63.10;;;;;;5026474;28;20383;-65
2020/12/17 01:41:01;;;;;;;31.02;17.10;;;13.60;63.20;;;;;;5022012;28;20100;-65
2020/12/17 01:43:27;;;;;;;32.38;17.27;;;13.50;63.20;;;;;;5003979;28;20033;-65
2020/12/17 01:45:56;;;;;;;33.03;18.48;;;13.50;63.20;;;;;;5027565;28;20042;-65
2020/12/17 01:48:21;;;;;;;32.70;17.88;;;13.50;63.20;;;;;;5028436;28;20052;-65
2020/12/17 01:50:47;;;;;;;33.10;17.95;;;13.60;63.30;;;;;;5024891;28;20120;-65
2020/12/17 01:53:13;;;;;;;32.20;18.98;;;13.60;63.30;;;;;;5026241;28;22862;-65
2020/12/17 01:55:39;;;;;;;32.72;18.92;;;13.60;63.40;;;;;;5024929;28;20041;-65
2020/12/17 01:58:08;;;;;;;31.35;17.52;;;13.60;63.30;;;;;;5026120;28;20079;-65
2020/12/17 02:00:35;;;;;;;31.67;18.33;;;13.60;63.40;;;;;;5022408;28;20033;-65
2020/12/17 02:03:03;;;;;;;34.95;19.15;;;13.60;63.30;;;;;;5023276;28;20446;-65
2020/12/17 02:05:29;;;;;;;32.95;18.38;;;13.60;63.30;;;;;;5024783;28;20486;-65
2020/12/17 02:07:57;;;;;;;31.27;18.42;;;13.60;63.30;;;;;;5029146;28;20051;-65
2020/12/17 02:10:24;;;;;;;29.48;17.55;;;13.70;63.20;;;;;;5022033;28;20600;-65
2020/12/17 02:12:49;;;;;;;35.60;18.38;;;13.60;63.10;;;;;;5019629;28;20069;-65
2020/12/17 02:15:21;;;;;;;31.35;17.80;;;13.60;63.00;;;;;;5021676;28;20625;-65
2020/12/17 02:17:48;;;;;;;35.03;18.85;;;13.60;63.70;;;;;;5006981;28;20041;-65
2020/12/17 02:20:15;;;;;;;31.52;17.80;;;13.60;62.90;;;;;;5024048;28;20565;-66
2020/12/17 02:22:41;;;;;;;33.63;18.27;;;13.60;63.00;;;;;;5025947;28;20041;-65
2020/12/17 02:25:10;;;;;;;36.42;18.83;;;13.60;62.90;;;;;;5023028;28;20493;-65
2020/12/17 02:27:37;;;;;;;34.40;17.85;;;13.50;62.80;;;;;;5015237;28;22016;-65
2020/12/17 02:30:08;;;;;;;33.08;18.40;;;13.50;63.00;;;;;;5026427;28;20545;-65
2020/12/17 02:32:34;;;;;;;34.08;19.40;;;13.50;63.20;;;;;;5026563;28;20041;-65
2020/12/17 02:34:59;;;;;;;36.95;19.23;;;13.50;63.20;;;;;;5025979;28;20060;-65
2020/12/17 02:37:25;;;;;;;35.72;18.95;;;13.50;63.30;;;;;;5026160;28;20061;-65
2020/12/17 02:39:51;;;;;;;34.92;19.08;;;13.40;63.20;;;;;;5023050;28;20117;-65
2020/12/17 02:42:17;;;;;;;33.55;18.63;;;13.50;63.30;;;;;;5025714;28;20032;-65
2020/12/17 02:44:43;;;;;;;31.55;18.95;;;13.50;63.20;;;;;;5029593;28;20094;-65
2020/12/17 02:47:08;;;;;;;31.80;17.98;;;13.40;63.00;;;;;;5024250;28;20151;-65
2020/12/17 02:49:34;;;;;;;32.83;18.30;;;13.40;63.10;;;;;;5022955;28;20042;-65
2020/12/17 02:52:00;;;;;;;35.70;18.52;;;13.40;63.20;;;;;;5011851;28;20045;-65
2020/12/17 02:54:25;;;;;;;35.38;19.50;;;13.50;63.40;;;;;;5006377;28;20618;-65
2020/12/17 02:56:51;;;;;;;37.72;19.58;;;13.50;63.40;;;;;;5025578;28;20612;-65
2020/12/17 02:59:17;;;;;;;35.60;19.70;;;13.50;63.40;;;;;;5008230;28;20049;-65
2020/12/17 03:01:42;;;;;;;32.67;19.42;;;13.50;63.50;;;;;;5023705;28;20036;-65
2020/12/17 03:04:08;;;;;;;34.22;19.35;;;13.50;63.50;;;;;;5024129;28;20163;-65
2020/12/17 03:06:33;;;;;;;31.75;17.38;;;13.60;63.60;;;;;;5024623;28;20444;-65
2020/12/17 03:08:59;;;;;;;33.70;17.83;;;13.60;63.40;;;;;;5024910;28;20397;-65
2020/12/17 03:11:25;;;;;;;31.42;18.13;;;13.60;63.40;;;;;;5013853;28;20041;-65
2020/12/17 03:13:50;;;;;;;35.70;18.73;;;13.70;63.40;;;;;;5011291;28;20037;-65
2020/12/17 03:16:16;;;;;;;33.08;18.48;;;13.70;63.40;;;;;;5026233;28;20413;-65
2020/12/17 03:18:41;;;;;;;32.05;18.83;;;13.70;63.30;;;;;;5022929;28;20072;-65
2020/12/17 03:21:07;;;;;;;28.55;17.25;;;13.70;63.30;;;;;;5026151;28;20031;-65
2020/12/17 03:23:33;;;;;;;37.10;18.17;;;13.70;63.20;;;;;;5024230;28;20482;-65
2020/12/17 03:25:58;;;;;;;32.47;18.15;;;13.70;63.90;;;;;;5022693;28;20064;-66
2020/12/17 03:28:24;;;;;;;34.25;18.05;;;13.70;63.20;;;;;;5025791;28;20033;-65
2020/12/17 03:30:50;;;;;;;31.65;17.40;;;13.80;63.20;;;;;;5024877;28;20036;-65
2020/12/17 03:33:15;;;;;;;31.45;17.85;;;13.80;63.10;;;;;;5006192;28;20025;-65
2020/12/17 03:35:41;;;;;;;32.90;17.77;;;13.70;63.00;;;;;;5024487;28;20041;-65
2020/12/17 03:38:06;;;;;;;36.20;18.23;;;13.80;63.00;;;;;;5023482;28;20048;-65
2020/12/17 03:40:32;;;;;;;34.58;18.92;;;13.80;63.10;;;;;;5022779;28;20072;-65
2020/12/17 03:42:58;;;;;;;39.80;19.52;;;13.80;63.10;;;;;;5022016;28;20406;-65
2020/12/17 03:45:23;;;;;;;34.92;18.92;;;13.80;63.00;;;;;;5025781;28;20040;-66
2020/12/17 03:47:49;;;;;;;36.05;18.88;;;13.80;63.00;;;;;;5001845;28;20040;-65
2020/12/17 03:50:15;;;;;;;38.85;19.15;;;13.80;63.10;;;;;;5023770;28;20069;-65
2020/12/17 03:52:40;;;;;;;34.97;19.42;;;13.80;63.20;;;;;;5025242;28;20041;-65
2020/12/17 03:55:06;;;;;;;37.60;19.88;;;13.80;63.20;;;;;;5011003;28;20624;-65
2020/12/17 03:57:32;;;;;;;38.03;19.75;;;13.80;63.20;;;;;;5021254;28;20045;-65
2020/12/17 03:59:58;;;;;;;35.20;18.77;;;13.80;64.00;;;;;;5024062;28;20041;-65
2020/12/17 04:02:23;;;;;;;37.63;20.38;;;13.70;63.20;;;;;;5024613;28;20574;-65
2020/12/17 04:04:49;;;;;;;37.90;20.60;;;13.70;63.30;;;;;;5022386;28;20041;-66
2020/12/17 04:07:15;;;;;;;35.47;19.35;;;13.70;63.30;;;;;;5023725;28;20045;-65
2020/12/17 04:09:44;;;;;;;37.28;19.83;;;13.70;63.30;;;;;;5025151;28;20030;-65
2020/12/17 04:12:10;;;;;;;40.78;20.83;;;13.70;63.30;;;;;;5024479;28;20048;-66
2020/12/17 04:14:36;;;;;;;38.33;19.90;;;13.70;63.40;;;;;;5007064;28;20037;-65
2020/12/17 04:17:02;;;;;;;36.45;19.27;;;13.70;63.40;;;;;;5026386;28;20037;-65
2020/12/17 04:19:28;;;;;;;44.70;21.45;;;13.70;63.60;;;;;;5029170;28;20037;-65
2020/12/17 04:21:54;;;;;;;41.17;20.20;;;13.70;63.60;;;;;;5031730;28;20048;-65
2020/12/17 04:24:19;;;;;;;39.75;21.10;;;13.70;63.70;;;;;;5026917;28;20041;-65
2020/12/17 04:26:52;;;;;;;39.92;20.73;;;13.70;63.80;;;;;;5026444;28;20128;-65
2020/12/17 04:29:18;;;;;;;38.33;20.45;;;13.70;63.80;;;;;;5029115;28;20153;-65
2020/12/17 04:31:45;;;;;;;42.10;20.35;;;13.70;63.80;;;;;;5026721;28;20059;-65
2020/12/17 04:34:10;;;;;;;39.47;20.85;;;13.70;63.80;;;;;;5028620;28;20047;-66
2020/12/17 04:36:36;;;;;;;42.15;21.77;;;13.70;63.90;;;;;;5031080;28;20042;-66
2020/12/17 04:39:03;;;;;;;36.80;20.23;;;13.70;63.90;;;;;;5031551;28;20049;-66
2020/12/17 04:41:31;;;;;;;39.70;20.75;;;13.70;64.00;;;;;;5028367;28;20126;-66
2020/12/17 04:43:57;;;;;;;40.50;20.77;;;13.70;64.00;;;;;;5027088;28;21081;-65
2020/12/17 04:46:24;;;;;;;39.67;21.30;;;13.60;63.90;;;;;;5028679;28;20041;-65
2020/12/17 04:48:52;;;;;;;42.90;21.67;;;13.70;64.10;;;;;;5027991;28;20033;-65
2020/12/17 04:51:21;;;;;;;43.47;21.92;;;13.70;64.10;;;;;;5030238;28;20025;-65
2020/12/17 04:53:49;;;;;;;40.40;20.85;;;13.70;64.00;;;;;;5027700;28;20037;-66
2020/12/17 04:56:16;;;;;;;42.45;21.25;;;13.70;64.10;;;;;;5027610;28;20128;-66
2020/12/17 04:58:48;;;;;;;39.40;20.40;;;13.70;64.10;;;;;;5029795;28;20164;-65
2020/12/17 05:01:16;;;;;;;41.42;19.90;;;13.70;64.10;;;;;;5027284;28;20037;-65
2020/12/17 05:03:47;;;;;;;37.10;20.88;;;13.70;64.00;;;;;;5027414;28;20124;-65
2020/12/17 05:06:22;;;;;;;42.58;20.98;;;13.70;64.00;;;;;;5028338;28;20033;-65
2020/12/17 05:08:49;;;;;;;41.05;20.33;;;13.70;64.00;;;;;;5026616;28;20090;-65
2020/12/17 05:11:15;;;;;;;38.63;19.92;;;13.70;64.00;;;;;;5026163;28;20060;-65
2020/12/17 05:13:41;;;;;;;36.25;19.25;;;13.70;64.00;;;;;;5025345;28;20128;-65
2020/12/17 05:16:07;;;;;;;38.22;19.98;;;13.70;64.00;;;;;;5012074;28;20041;-65
2020/12/17 05:18:32;;;;;;;38.15;20.23;;;13.80;64.00;;;;;;5029437;28;20037;-66
2020/12/17 05:20:59;;;;;;;38.95;19.63;;;13.70;63.90;;;;;;5026434;28;20043;-65
2020/12/17 05:23:26;;;;;;;36.38;20.70;;;13.80;64.00;;;;;;5029474;28;20040;-65
2020/12/17 05:25:52;;;;;;;37.10;20.05;;;13.70;63.90;;;;;;5027694;28;20037;-65
2020/12/17 05:28:18;;;;;;;39.67;21.60;;;13.80;64.00;;;;;;5025414;28;20029;-65
2020/12/17 05:30:44;;;;;;;39.30;20.23;;;13.80;64.00;;;;;;5026815;28;20387;-65
2020/12/17 05:33:09;;;;;;;40.05;20.95;;;13.80;64.00;;;;;;5033015;28;20033;-65
2020/12/17 05:35:37;;;;;;;40.65;20.30;;;13.70;64.00;;;;;;5014311;28;20095;-65
2020/12/17 05:38:05;;;;;;;37.47;20.35;;;13.70;64.00;;;;;;5029019;28;20029;-65
2020/12/17 05:40:41;;;;;;;43.35;20.63;;;13.70;64.00;;;;;;5016774;28;20397;-65
2020/12/17 05:43:08;;;;;;;35.85;19.48;;;13.70;64.10;;;;;;5029115;28;20072;-65
2020/12/17 05:45:34;;;;;;;38.78;20.67;;;13.80;64.10;;;;;;5028748;28;20603;-65
2020/12/17 05:48:13;;;;;;;37.17;19.73;;;13.80;64.00;;;;;;5023976;28;20056;-65
2020/12/17 05:50:49;;;;;;;40.65;20.75;;;13.80;64.00;;;;;;5025300;28;20067;-65
2020/12/17 05:53:16;;;;;;;36.97;20.33;;;13.80;64.00;;;;;;5024300;28;20486;-65
2020/12/17 05:55:42;;;;;;;37.20;18.85;;;13.80;64.00;;;;;;5026663;28;20044;-65
2020/12/17 05:58:10;;;;;;;38.58;20.60;;;13.80;64.00;;;;;;5028119;28;20045;-65
2020/12/17 06:00:35;;;;;;;39.38;20.33;;;13.80;64.00;;;;;;5019281;28;20594;-65
2020/12/17 06:03:01;;;;;;;41.40;20.30;;;13.80;64.00;;;;;;5028434;28;20044;-65
2020/12/17 06:05:29;;;;;;;41.80;20.73;;;13.80;64.00;;;;;;5025334;28;20045;-66
2020/12/17 06:07:59;;;;;;;38.78;20.05;;;13.80;64.00;;;;;;5004219;28;20123;-65
2020/12/17 06:10:32;;;;;;;40.60;20.70;;;13.80;64.00;;;;;;5025667;28;20037;-65
2020/12/17 06:13:02;;;;;;;35.97;19.50;;;13.90;64.00;;;;;;5031080;28;20045;-65
2020/12/17 06:15:31;;;;;;;36.58;18.95;;;13.80;64.00;;;;;;5032759;28;20041;-65
2020/12/17 06:18:02;;;;;;;40.42;20.50;;;13.80;64.00;;;;;;5027760;28;20049;-65
2020/12/17 06:20:32;;;;;;;43.70;21.55;;;13.80;64.00;;;;;;5030710;28;20052;-65
2020/12/17 06:22:59;;;;;;;46.13;21.38;;;13.80;63.90;;;;;;5027315;28;20560;-66
2020/12/17 06:25:27;;;;;;;43.38;20.52;;;13.80;63.90;;;;;;5027478;28;20123;-65
2020/12/17 06:27:53;;;;;;;44.67;21.10;;;13.80;63.90;;;;;;5027300;28;20114;-65
2020/12/17 06:30:21;;;;;;;44.97;22.63;;;13.80;63.90;;;;;;5025608;28;20125;-65
2020/12/17 06:32:48;;;;;;;45.47;21.63;;;13.80;64.00;;;;;;5026064;28;20398;-65
2020/12/17 06:35:42;;;;;;;42.00;20.23;;;13.80;64.00;;;;;;5028348;28;20060;-66
2020/12/17 06:38:09;;;;;;;44.95;21.60;;;13.80;64.10;;;;;;5015349;28;20465;-67
2020/12/17 06:40:35;;;;;;;43.15;21.25;;;13.80;64.10;;;;;;5031599;28;20033;-66
2020/12/17 06:43:03;;;;;;;41.10;20.10;;;13.80;64.20;;;;;;5030861;28;20060;-65
2020/12/17 06:45:33;;;;;;;49.45;22.52;;;13.80;64.30;;;;;;5030918;28;20037;-65
2020/12/17 06:48:18;;;;;;;39.13;21.33;;;13.80;64.30;;;;;;5020011;28;20071;-65
2020/12/17 06:50:43;;;;;;;43.08;21.58;;;13.80;64.40;;;;;;5027569;28;20322;-65
2020/12/17 06:53:11;;;;;;;43.50;20.67;;;13.80;64.40;;;;;;5025700;28;20045;-65
2020/12/17 06:55:42;;;;;;;40.03;20.55;;;13.80;64.50;;;;;;5026091;28;20041;-65
2020/12/17 06:58:20;;;;;;;38.00;20.27;;;13.80;64.50;;;;;;5023697;28;20067;-65
2020/12/17 07:00:47;;;;;;;46.20;21.50;;;13.70;65.20;;;;;;5023604;28;20505;-65
2020/12/17 07:03:49;;;;;;;40.13;19.90;;;13.80;64.50;;;;;;5018425;28;20029;-65
2020/12/17 07:06:23;;;;;;;38.03;20.48;;;13.80;64.50;;;;;;5008531;28;20048;-65
2020/12/17 07:08:56;;;;;;;45.55;21.73;;;13.80;64.50;;;;;;5000472;28;20037;-65
2020/12/17 07:11:46;;;;;;;43.45;21.00;;;13.80;64.60;;;;;;5020006;28;20044;-65
2020/12/17 07:14:24;;;;;;;39.53;19.92;;;13.80;64.60;;;;;;5025235;28;20728;-65
2020/12/17 07:17:01;;;;;;;43.65;21.58;;;13.80;64.60;;;;;;5022678;28;20555;-65
2020/12/17 07:19:39;;;;;;;45.05;22.13;;;13.80;64.60;;;;;;5024128;28;20049;-65
2020/12/17 07:22:14;;;;;;;44.58;22.13;;;13.80;64.70;;;;;;5005638;28;20041;-65
2020/12/17 07:24:43;;;;;;;45.40;20.85;;;13.80;64.80;;;;;;5019352;28;20083;-65
2020/12/17 07:27:31;;;;;;;39.05;20.20;;;13.80;64.80;;;;;;5023723;28;20033;-65
2020/12/17 07:30:03;;;;;;;45.33;21.63;;;13.80;64.70;;;;;;5021195;28;20044;-65
2020/12/17 07:32:47;;;;;;;43.10;20.60;;;13.90;64.80;;;;;;5009546;28;20033;-65
2020/12/17 07:35:12;;;;;;;43.38;20.13;;;13.90;64.80;;;;;;5025124;28;20036;-65
2020/12/17 07:37:42;;;;;;;44.08;20.60;;;13.90;64.80;;;;;;5025740;28;20047;-65
2020/12/17 07:40:15;;;;;;;35.58;19.08;;;13.90;64.80;;;;;;5025457;28;20124;-65
2020/12/17 07:42:53;;;;;;;40.80;20.95;;;13.90;64.80;;;;;;5023041;28;20132;-67
2020/12/17 07:45:43;;;;;;;39.60;20.10;;;13.90;64.80;;;;;;5026670;28;20041;-66
2020/12/17 07:48:34;;;;;;;38.95;18.73;;;13.90;64.80;;;;;;5020476;28;20171;-66
2020/12/17 07:51:01;;;;;;;37.17;19.15;;;13.90;64.80;;;;;;5018450;28;20041;-65
2020/12/17 07:53:27;;;;;;;36.05;18.75;;;13.90;64.90;;;;;;5026996;28;20106;-65
2020/12/17 07:55:53;;;;;;;38.60;19.63;;;13.90;64.90;;;;;;5027393;28;20045;-65
2020/12/17 07:58:19;;;;;;;36.88;18.90;;;13.90;65.70;;;;;;5024868;28;20413;-66
2020/12/17 08:00:45;;;;;;;37.95;19.38;;;13.90;65.00;;;;;;5025455;28;20041;-66
2020/12/17 08:03:11;;;;;;;34.72;19.00;;;13.90;65.10;;;;;;5025629;28;20075;-66
2020/12/17 08:05:37;;;;;;;38.22;18.48;;;13.90;65.10;;;;;;5026210;28;20098;-66
2020/12/17 08:08:02;;;;;;;33.08;17.90;;;13.90;65.10;;;;;;5029521;28;20037;-66
2020/12/17 08:10:29;;;;;;;41.85;19.02;;;13.90;65.20;;;;;;5027884;28;20066;-66
2020/12/17 08:12:57;;;;;;;36.10;18.55;;;13.90;65.30;;;;;;5016266;28;20467;-66
2020/12/17 08:15:23;;;;;;;38.15;17.23;;;13.90;65.30;;;;;;5030000;28;20037;-66
2020/12/17 08:17:55;;;;;;;33.33;17.35;;;13.90;65.30;;;;;;5029987;28;20048;-66
2020/12/17 08:20:21;;;;;;;32.85;17.95;;;13.90;65.50;;;;;;5030378;28;20048;-66
2020/12/17 08:22:48;;;;;;;34.35;16.77;;;13.90;65.50;;;;;;5029779;28;20061;-66
2020/12/17 08:25:16;;;;;;;31.55;16.90;;;13.90;65.50;;;;;;5027089;28;20128;-66
2020/12/17 08:27:42;;;;;;;31.08;17.05;;;14.00;65.60;;;;;;5031631;28;20044;-66
2020/12/17 08:30:07;;;;;;;38.45;17.05;;;14.00;65.60;;;;;;5031965;28;20036;-66
2020/12/17 08:32:33;;;;;;;29.05;16.90;;;14.00;65.60;;;;;;5034320;28;20048;-66
2020/12/17 08:34:59;;;;;;;34.80;16.63;;;14.00;65.70;;;;;;5032177;28;20413;-66
2020/12/17 08:37:25;;;;;;;31.40;16.33;;;14.00;65.70;;;;;;5017127;28;20049;-66
2020/12/17 08:40:05;;;;;;;30.67;16.20;;;14.00;65.70;;;;;;5016381;28;20041;-66
2020/12/17 08:42:35;;;;;;;33.53;15.77;;;14.00;65.70;;;;;;5035088;28;20124;-66
2020/12/17 08:45:08;;;;;;;32.33;16.15;;;14.00;65.70;;;;;;5033547;28;20033;-66
2020/12/17 08:47:39;;;;;;;30.83;16.67;;;14.10;65.80;;;;;;5033869;28;20072;-66
2020/12/17 08:50:07;;;;;;;32.70;16.67;;;14.10;65.80;;;;;;5030796;28;20508;-66
2020/12/17 08:52:33;;;;;;;33.88;16.58;;;14.10;65.80;;;;;;5035264;28;20127;-66
2020/12/17 08:55:08;;;;;;;30.58;15.77;;;14.10;65.80;;;;;;5034395;28;20136;-66
2020/12/17 08:57:34;;;;;;;33.60;15.80;;;14.10;65.80;;;;;;5034478;28;20190;-66
2020/12/17 08:59:59;;;;;;;29.92;16.58;;;14.10;65.80;;;;;;5027867;28;20051;-66
2020/12/17 09:02:26;;;;;;;27.42;16.85;;;14.20;66.70;;;;;;5027498;28;20040;-66
2020/12/17 09:05:01;;;;;;;28.27;15.93;;;14.20;66.10;;;;;;5030942;28;20497;-66
2020/12/17 09:07:28;;;;;;;31.08;17.25;;;14.10;66.20;;;;;;5030078;28;20052;-66
2020/12/17 09:10:13;;;;;;;29.98;16.50;;;14.10;66.20;;;;;;5032483;28;20037;-66
2020/12/17 09:12:39;;;;;;;27.95;15.80;;;14.20;66.30;;;;;;5033295;28;20037;-66
2020/12/17 09:15:10;;;;;;;26.25;16.13;;;14.20;66.30;;;;;;5032270;28;20619;-66
2020/12/17 09:17:37;;;;;;;27.92;15.73;;;14.20;66.30;;;;;;5030202;28;20037;-66
2020/12/17 09:20:20;;;;;;;30.80;17.48;;;14.20;66.30;;;;;;5030823;28;20254;-66
2020/12/17 09:22:46;;;;;;;26.58;16.65;;;14.20;66.30;;;;;;5026559;28;20037;-66
2020/12/17 09:25:13;;;;;;;27.60;15.98;;;14.30;66.30;;;;;;5031195;28;20040;-66
2020/12/17 09:27:40;;;;;;;27.92;15.55;;;14.30;66.40;;;;;;5014591;28;20043;-66
2020/12/17 09:30:11;;;;;;;27.77;15.77;;;14.20;66.30;;;;;;5032415;28;20326;-66
2020/12/17 09:32:59;;;;;;;33.58;17.02;;;14.30;66.40;;;;;;5028469;28;20041;-66
2020/12/17 09:35:35;;;;;;;28.90;16.95;;;14.30;66.50;;;;;;5031902;28;20033;-66
2020/12/17 09:38:05;;;;;;;27.13;17.55;;;14.30;66.40;;;;;;5031763;28;20045;-66
2020/12/17 09:40:32;;;;;;;29.70;16.52;;;14.30;66.50;;;;;;5029569;28;20079;-66
2020/12/17 09:43:04;;;;;;;28.75;17.00;;;14.30;66.50;;;;;;5033448;28;20041;-66
2020/12/17 09:45:34;;;;;;;28.00;16.88;;;14.40;66.60;;;;;;5027540;28;20037;-66
2020/12/17 09:48:00;;;;;;;32.17;17.10;;;14.40;66.60;;;;;;5026878;28;20056;-66
2020/12/17 09:50:25;;;;;;;30.52;18.45;;;14.40;66.60;;;;;;5013458;28;20600;-66
2020/12/17 09:52:51;;;;;;;29.70;18.15;;;14.40;67.30;;;;;;5027785;28;20114;-66
2020/12/17 09:55:16;;;;;;;29.88;18.27;;;14.40;66.60;;;;;;5026826;28;20586;-66
2020/12/17 09:57:44;;;;;;;36.00;18.38;;;14.50;66.70;;;;;;5025975;28;20040;-66
2020/12/17 10:00:13;;;;;;;31.67;18.83;;;14.50;66.60;;;;;;5026701;28;20477;-66
2020/12/17 10:02:40;;;;;;;32.53;18.17;;;14.50;66.50;;;;;;5027374;28;20065;-66
2020/12/17 10:05:07;;;;;;;36.25;18.42;;;14.50;67.20;;;;;;5025912;28;20051;-66
2020/12/17 10:07:33;;;;;;;31.27;18.05;;;14.50;66.50;;;;;;5027239;28;20045;-66
2020/12/17 10:09:59;;;;;;;30.95;17.63;;;14.50;66.50;;;;;;5026453;28;20041;-66
2020/12/17 10:12:24;;;;;;;30.95;17.15;;;14.50;66.50;;;;;;5029903;28;20574;-66
2020/12/17 10:14:50;;;;;;;27.40;17.00;;;14.50;66.50;;;;;;5013568;28;20044;-66
2020/12/17 10:17:16;;;;;;;28.88;16.80;;;14.40;66.40;;;;;;5028470;28;20041;-66
2020/12/17 10:19:42;;;;;;;27.25;15.93;;;14.50;66.50;;;;;;5027360;28;20647;-66
2020/12/17 10:22:08;;;;;;;28.30;15.20;;;14.40;66.50;;;;;;5030813;28;20056;-66
2020/12/17 10:24:33;;;;;;;23.63;14.55;;;14.50;66.50;;;;;;5026316;28;20045;-66
2020/12/17 10:27:01;;;;;;;27.23;16.20;;;14.50;66.50;;;;;;5026417;28;20041;-66
2020/12/17 10:29:26;;;;;;;24.73;15.27;;;14.50;66.20;;;;;;5025239;28;20042;-66
2020/12/17 10:31:52;;;;;;;22.65;13.68;;;14.50;66.60;;;;;;5026258;28;20717;-66
2020/12/17 10:34:18;;;;;;;19.48;12.45;;;14.50;66.60;;;;;;5028466;28;20853;-66
2020/12/17 10:36:44;;;;;;;20.20;11.70;;;14.60;66.80;;;;;;5024762;28;20033;-66
2020/12/17 10:39:12;;;;;;;17.65;10.80;;;14.60;66.70;;;;;;5022243;28;20069;-66
2020/12/17 10:41:38;;;;;;;17.40;10.30;;;14.70;66.50;;;;;;5024310;28;20045;-66
2020/12/17 10:44:05;;;;;;;15.77;9.80;;;14.80;66.20;;;;;;5025965;28;20503;-66
2020/12/17 10:46:31;;;;;;;14.45;9.07;;;14.80;65.80;;;;;;5027575;28;20056;-66
2020/12/17 10:49:00;;;;;;;19.30;9.57;;;14.80;65.80;;;;;;5029680;28;20037;-66
2020/12/17 10:51:26;;;;;;;12.65;8.90;;;14.90;65.90;;;;;;5022408;28;20067;-66
2020/12/17 10:53:52;;;;;;;13.30;9.43;;;14.90;65.80;;;;;;5014717;28;20127;-65
2020/12/17 10:56:17;;;;;;;16.52;9.40;;;15.00;65.90;;;;;;5016930;28;20536;-66
2020/12/17 10:58:43;;;;;;;11.05;8.15;;;15.20;66.20;;;;;;5025943;28;20037;-66
2020/12/17 11:01:09;;;;;;;12.38;8.73;;;15.30;65.60;;;;;;5023337;28;20044;-66
2020/12/17 11:03:35;;;;;;;13.80;9.70;;;15.40;64.90;;;;;;5022136;28;20489;-66
2020/12/17 11:06:00;;;;;;;14.73;8.60;;;15.40;64.70;;;;;;5019080;28;20128;-66
2020/12/17 11:08:27;;;;;;;13.50;8.93;;;15.40;64.50;;;;;;5026873;28;20236;-66
2020/12/17 11:10:53;;;;;;;13.10;9.60;;;15.40;64.40;;;;;;5016140;28;20040;-66
2020/12/17 11:13:19;;;;;;;15.20;9.68;;;15.40;64.20;;;;;;5022191;28;20033;-66
2020/12/17 11:15:48;;;;;;;13.38;8.70;;;15.50;64.20;;;;;;5020999;28;20037;-66
2020/12/17 11:18:17;;;;;;;13.15;8.38;;;15.50;64.10;;;;;;5013907;28;20037;-66
2020/12/17 11:20:43;;;;;;;11.40;8.10;;;15.50;63.90;;;;;;5019303;28;20945;-66
2020/12/17 11:23:09;;;;;;;12.10;7.57;;;15.50;63.70;;;;;;5021273;28;20171;-66
2020/12/17 11:25:36;;;;;;;12.18;8.18;;;15.50;63.40;;;;;;5028410;28;20451;-66
2020/12/17 11:28:08;;;;;;;15.02;8.13;;;15.40;63.20;;;;;;5022178;28;20037;-66
2020/12/17 11:30:35;;;;;;;11.23;8.05;;;15.40;63.20;;;;;;5023842;28;20535;-66
2020/12/17 11:33:02;;;;;;;12.55;8.52;;;15.30;63.00;;;;;;5032974;28;20076;-66
2020/12/17 11:35:28;;;;;;;12.15;8.88;;;15.20;63.10;;;;;;5027626;28;20694;-66
2020/12/17 11:37:53;;;;;;;12.05;8.88;;;15.20;63.20;;;;;;5030625;28;20048;-66
2020/12/17 11:40:20;;;;;;;11.32;8.50;;;15.20;63.20;;;;;;5032854;28;20048;-67
2020/12/17 11:42:46;;;;;;;13.48;9.30;;;15.20;63.50;;;;;;5012383;28;20041;-65
2020/12/17 11:45:12;;;;;;;13.38;9.38;;;15.30;63.80;;;;;;5024266;28;20052;-66
2020/12/17 11:47:38;;;;;;;13.23;9.68;;;15.40;63.50;;;;;;5026502;28;20037;-66
2020/12/17 11:50:06;;;;;;;13.15;9.27;;;15.40;63.30;;;;;;5029671;28;20601;-66
2020/12/17 11:52:32;;;;;;;13.25;8.82;;;15.40;63.00;;;;;;5024781;28;20181;-66
2020/12/17 11:54:59;;;;;;;13.18;9.02;;;15.30;62.80;;;;;;5026875;28;20045;-66
2020/12/17 11:57:25;;;;;;;14.73;8.98;;;15.30;62.50;;;;;;5025409;28;20044;-66
2020/12/17 11:59:50;;;;;;;16.80;8.98;;;15.20;62.40;;;;;;5031765;28;20544;-66
2020/12/17 12:02:16;;;;;;;13.90;9.00;;;15.10;62.60;;;;;;5031776;28;20033;-66
2020/12/17 12:04:44;;;;;;;10.98;8.63;;;15.00;62.80;;;;;;5024442;28;20037;-66
2020/12/17 12:07:09;;;;;;;14.27;9.52;;;15.00;63.10;;;;;;5028189;28;20032;-65
2020/12/17 12:09:35;;;;;;;15.35;8.82;;;15.00;63.00;;;;;;5028602;28;20037;-65
2020/12/17 12:12:01;;;;;;;14.18;9.75;;;15.00;62.90;;;;;;5016651;28;20036;-65
2020/12/17 12:14:26;;;;;;;16.80;9.95;;;14.90;62.80;;;;;;5028130;28;20045;-66
2020/12/17 12:16:52;;;;;;;14.73;10.05;;;14.90;62.90;;;;;;5022736;28;20048;-66
2020/12/17 12:19:17;;;;;;;17.63;10.63;;;14.90;62.80;;;;;;5006350;28;20053;-66
2020/12/17 12:21:50;;;;;;;15.38;10.52;;;14.80;63.00;;;;;;5032108;28;20087;-66
2020/12/17 12:24:16;;;;;;;13.70;9.85;;;14.80;63.00;;;;;;5026076;28;20041;-66
2020/12/17 12:26:44;;;;;;;18.55;11.20;;;14.70;63.00;;;;;;5024733;28;20732;-66
2020/12/17 12:29:10;;;;;;;16.30;11.73;;;14.70;63.10;;;;;;5019457;28;20490;-66
2020/12/17 12:31:36;;;;;;;14.80;10.73;;;14.70;63.20;;;;;;5009128;28;20043;-66